TAM8140 SBGR-SABE
Flight info
| Callsign | TAM8140 |
|---|---|
| Flight time | 2h 29m |
| Altitude | 34000 |
| Route | UBSOD UZ38 UMRUD UN741 PAPIX |
| Aircraft | A320/M-SDE2E3FGHIRWXY/LB1 |
Departure
| Time | 2026-05-01 12:30 |
|---|---|
| Airport | São Paulo/Guarulhos–Governor André Franco Montoro International Airport (SBGR) |
Arrival
| Time | 2026-05-01 14:59 |
|---|---|
| Airport | Aeroparque Jorge Newbery (SABE) |
| Time | Latitude | Longitude | Altitude | Speed | Heading |
|---|---|---|---|---|---|
| 2026-05-01 11:49 | -23.42926 | -46.48574 | 2445 ft | 0 kts | 5° |
| 2026-05-01 12:09 | -23.42936 | -46.48575 | 2445 ft | 2 kts | 5° |
| 2026-05-01 12:09 | -23.42951 | -46.48576 | 2444 ft | 2 kts | 5° |
| 2026-05-01 12:10 | -23.42966 | -46.48579 | 2444 ft | 2 kts | 28° |
| 2026-05-01 12:10 | -23.42985 | -46.48603 | 2444 ft | 2 kts | 75° |
| 2026-05-01 12:10 | -23.42986 | -46.48615 | 2444 ft | 0 kts | 92° |
| 2026-05-01 12:11 | -23.42985 | -46.48623 | 2444 ft | 0 kts | 96° |
| 2026-05-01 12:26 | -23.42986 | -46.48621 | 2444 ft | 0 kts | 96° |
| 2026-05-01 12:27 | -23.42988 | -46.48597 | 2444 ft | 9 kts | 94° |
| 2026-05-01 12:27 | -23.43041 | -46.48449 | 2444 ft | 11 kts | 160° |
| 2026-05-01 12:28 | -23.43235 | -46.48387 | 2447 ft | 14 kts | 163° |
| 2026-05-01 12:28 | -23.43292 | -46.48370 | 2448 ft | 0 kts | 163° |
| 2026-05-01 12:28 | -23.43311 | -46.48363 | 2449 ft | 7 kts | 163° |
| 2026-05-01 12:29 | -23.43362 | -46.48347 | 2450 ft | 10 kts | 163° |
| 2026-05-01 12:29 | -23.43410 | -46.48284 | 2452 ft | 11 kts | 87° |
| 2026-05-01 12:29 | -23.43306 | -46.47883 | 2452 ft | 79 kts | 73° |
| 2026-05-01 12:30 | -23.42769 | -46.45912 | 2685 ft | 168 kts | 73° |
| 2026-05-01 12:30 | -23.42438 | -46.44709 | 3307 ft | 169 kts | 72° |
| 2026-05-01 12:30 | -23.42088 | -46.43491 | 3999 ft | 169 kts | 71° |
| 2026-05-01 12:31 | -23.41732 | -46.42271 | 4546 ft | 176 kts | 71° |
| 2026-05-01 12:31 | -23.41346 | -46.40946 | 4883 ft | 191 kts | 71° |
| 2026-05-01 12:31 | -23.40928 | -46.39505 | 5184 ft | 209 kts | 71° |
| 2026-05-01 12:31 | -23.40476 | -46.37933 | 5544 ft | 226 kts | 71° |
| 2026-05-01 12:32 | -23.40200 | -46.36179 | 5825 ft | 251 kts | 90° |
| 2026-05-01 12:32 | -23.41216 | -46.32282 | 6861 ft | 281 kts | 108° |
| 2026-05-01 12:32 | -23.41896 | -46.30281 | 7590 ft | 285 kts | 108° |
| 2026-05-01 12:33 | -23.42572 | -46.28268 | 8326 ft | 289 kts | 109° |
| 2026-05-01 12:33 | -23.43563 | -46.26367 | 8973 ft | 297 kts | 134° |
| 2026-05-01 12:33 | -23.45306 | -46.25193 | 9704 ft | 299 kts | 164° |
| 2026-05-01 12:33 | -23.47356 | -46.25030 | 10407 ft | 299 kts | 190° |
| 2026-05-01 12:34 | -23.49414 | -46.25476 | 10907 ft | 308 kts | 193° |
| 2026-05-01 12:34 | -23.51580 | -46.25972 | 11199 ft | 325 kts | 193° |
| 2026-05-01 12:34 | -23.53781 | -46.26802 | 11454 ft | 339 kts | 212° |
| 2026-05-01 12:34 | -23.55571 | -46.28514 | 11752 ft | 349 kts | 234° |
| 2026-05-01 12:35 | -23.56639 | -46.30862 | 12239 ft | 352 kts | 256° |
| 2026-05-01 12:35 | -23.57148 | -46.33463 | 12825 ft | 354 kts | 259° |
| 2026-05-01 12:35 | -23.57645 | -46.36122 | 13362 ft | 358 kts | 258° |
| 2026-05-01 12:35 | -23.58151 | -46.38757 | 13900 ft | 361 kts | 258° |
| 2026-05-01 12:36 | -23.58679 | -46.41447 | 14475 ft | 363 kts | 258° |
| 2026-05-01 12:36 | -23.59210 | -46.44135 | 15034 ft | 365 kts | 258° |
| 2026-05-01 12:36 | -23.59741 | -46.46819 | 15574 ft | 366 kts | 258° |
| 2026-05-01 12:36 | -23.60277 | -46.49528 | 16108 ft | 368 kts | 258° |
| 2026-05-01 12:37 | -23.60795 | -46.52281 | 16625 ft | 371 kts | 261° |
| 2026-05-01 12:37 | -23.61216 | -46.55053 | 17138 ft | 372 kts | 262° |
| 2026-05-01 12:37 | -23.61628 | -46.57854 | 17643 ft | 374 kts | 262° |
| 2026-05-01 12:37 | -23.62034 | -46.60631 | 18136 ft | 376 kts | 262° |
| 2026-05-01 12:38 | -23.62535 | -46.63454 | 18603 ft | 379 kts | 256° |
| 2026-05-01 12:38 | -23.63406 | -46.66185 | 19084 ft | 383 kts | 248° |
| 2026-05-01 12:38 | -23.64628 | -46.68735 | 19546 ft | 386 kts | 241° |
| 2026-05-01 12:38 | -23.66053 | -46.71226 | 20009 ft | 389 kts | 239° |
| 2026-05-01 12:39 | -23.67519 | -46.73724 | 20447 ft | 392 kts | 239° |
| 2026-05-01 12:39 | -23.68991 | -46.76225 | 20879 ft | 395 kts | 238° |
| 2026-05-01 12:39 | -23.70710 | -46.78548 | 21295 ft | 400 kts | 228° |
| 2026-05-01 12:39 | -23.72827 | -46.80555 | 21743 ft | 405 kts | 218° |
| 2026-05-01 12:40 | -23.75226 | -46.82211 | 22181 ft | 408 kts | 213° |
| 2026-05-01 12:40 | -23.77698 | -46.83772 | 22590 ft | 411 kts | 212° |
| 2026-05-01 12:40 | -23.80197 | -46.85331 | 23022 ft | 413 kts | 213° |
| 2026-05-01 12:40 | -23.82687 | -46.86887 | 23443 ft | 415 kts | 213° |
| 2026-05-01 12:41 | -23.85187 | -46.88456 | 23836 ft | 418 kts | 213° |
| 2026-05-01 12:41 | -23.87728 | -46.90055 | 24242 ft | 420 kts | 213° |
| 2026-05-01 12:41 | -23.90245 | -46.91644 | 24641 ft | 422 kts | 213° |
| 2026-05-01 12:41 | -23.92796 | -46.93255 | 25038 ft | 424 kts | 213° |
| 2026-05-01 12:42 | -23.95380 | -46.94889 | 25430 ft | 426 kts | 213° |
| 2026-05-01 12:42 | -23.97933 | -46.96505 | 25807 ft | 428 kts | 213° |
| 2026-05-01 12:42 | -24.00511 | -46.98138 | 26193 ft | 430 kts | 213° |
| 2026-05-01 12:42 | -24.03105 | -46.99782 | 26564 ft | 431 kts | 213° |
| 2026-05-01 12:43 | -24.05700 | -47.01426 | 26919 ft | 433 kts | 213° |
| 2026-05-01 12:43 | -24.08311 | -47.03081 | 27268 ft | 435 kts | 214° |
| 2026-05-01 12:43 | -24.10948 | -47.04751 | 27676 ft | 435 kts | 214° |
| 2026-05-01 12:43 | -24.13550 | -47.06391 | 28162 ft | 433 kts | 214° |
| 2026-05-01 12:44 | -24.16155 | -47.08035 | 28635 ft | 431 kts | 214° |
| 2026-05-01 12:44 | -24.18737 | -47.09672 | 29072 ft | 430 kts | 214° |
| 2026-05-01 12:44 | -24.23886 | -47.12945 | 29989 ft | 426 kts | 214° |
| 2026-05-01 12:45 | -24.28940 | -47.16305 | 30889 ft | 421 kts | 217° |
| 2026-05-01 12:45 | -24.31404 | -47.18012 | 31321 ft | 420 kts | 217° |
| 2026-05-01 12:45 | -24.33848 | -47.19711 | 31743 ft | 418 kts | 217° |
| 2026-05-01 12:46 | -24.36325 | -47.21434 | 32153 ft | 416 kts | 217° |
| 2026-05-01 12:46 | -24.38764 | -47.23129 | 32526 ft | 415 kts | 217° |
| 2026-05-01 12:46 | -24.41194 | -47.24819 | 32833 ft | 415 kts | 217° |
| 2026-05-01 12:46 | -24.43634 | -47.26518 | 33113 ft | 415 kts | 218° |
| 2026-05-01 12:47 | -24.46048 | -47.28199 | 33388 ft | 416 kts | 218° |
| 2026-05-01 12:47 | -24.48502 | -47.29910 | 33655 ft | 417 kts | 218° |
| 2026-05-01 12:47 | -24.50951 | -47.31617 | 33917 ft | 418 kts | 218° |
| 2026-05-01 12:47 | -24.53413 | -47.33333 | 34126 ft | 419 kts | 218° |
| 2026-05-01 12:48 | -24.58347 | -47.36775 | 34146 ft | 419 kts | 218° |
| 2026-05-01 12:48 | -24.63241 | -47.40192 | 34149 ft | 419 kts | 218° |
| 2026-05-01 12:49 | -24.68161 | -47.43628 | 34150 ft | 417 kts | 218° |
| 2026-05-01 12:49 | -24.73048 | -47.47047 | 34148 ft | 418 kts | 218° |
| 2026-05-01 12:50 | -24.77936 | -47.50467 | 34149 ft | 417 kts | 218° |
| 2026-05-01 12:50 | -24.82839 | -47.53904 | 34148 ft | 416 kts | 218° |
| 2026-05-01 12:51 | -24.87718 | -47.57326 | 34150 ft | 416 kts | 218° |
| 2026-05-01 12:52 | -24.95037 | -47.62468 | 34151 ft | 415 kts | 218° |
| 2026-05-01 12:52 | -25.02301 | -47.67591 | 34151 ft | 414 kts | 219° |
| 2026-05-01 12:53 | -25.09600 | -47.72755 | 34150 ft | 415 kts | 219° |
| 2026-05-01 12:54 | -25.14463 | -47.76170 | 34150 ft | 414 kts | 219° |
| 2026-05-01 12:54 | -25.21745 | -47.81290 | 34147 ft | 414 kts | 219° |
| 2026-05-01 12:55 | -25.29025 | -47.86437 | 34143 ft | 412 kts | 219° |
| 2026-05-01 12:56 | -25.33822 | -47.89832 | 34145 ft | 412 kts | 219° |
| 2026-05-01 12:56 | -25.38641 | -47.93249 | 34147 ft | 411 kts | 219° |
| 2026-05-01 12:57 | -25.43454 | -47.96664 | 34143 ft | 410 kts | 220° |
| 2026-05-01 12:57 | -25.50672 | -48.01793 | 34134 ft | 411 kts | 219° |
| 2026-05-01 12:58 | -25.55492 | -48.05219 | 34133 ft | 410 kts | 220° |
| 2026-05-01 12:59 | -25.62664 | -48.10332 | 34137 ft | 410 kts | 219° |
| 2026-05-01 12:59 | -25.69844 | -48.15437 | 34138 ft | 410 kts | 220° |
| 2026-05-01 13:00 | -25.77046 | -48.20567 | 34138 ft | 410 kts | 220° |
| 2026-05-01 13:01 | -25.84228 | -48.25689 | 34138 ft | 408 kts | 220° |
| 2026-05-01 13:02 | -25.91378 | -48.30798 | 34138 ft | 408 kts | 220° |
| 2026-05-01 13:07 | -26.43571 | -48.68309 | 34151 ft | 405 kts | 221° |
| 2026-05-01 13:08 | -26.48270 | -48.71729 | 34152 ft | 404 kts | 221° |
| 2026-05-01 13:08 | -26.52981 | -48.75205 | 34152 ft | 404 kts | 221° |
| 2026-05-01 13:09 | -26.57651 | -48.78652 | 34157 ft | 403 kts | 221° |
| 2026-05-01 13:09 | -26.62334 | -48.82108 | 34161 ft | 403 kts | 221° |
| 2026-05-01 13:10 | -26.67013 | -48.85563 | 34164 ft | 403 kts | 222° |
| 2026-05-01 13:10 | -26.71689 | -48.88981 | 34170 ft | 402 kts | 221° |
| 2026-05-01 13:11 | -26.76350 | -48.92383 | 34170 ft | 402 kts | 222° |
| 2026-05-01 13:11 | -26.81029 | -48.95805 | 34175 ft | 402 kts | 221° |
| 2026-05-01 13:12 | -26.85703 | -48.99226 | 34178 ft | 401 kts | 222° |
| 2026-05-01 13:12 | -26.90373 | -49.02649 | 34181 ft | 400 kts | 222° |
| 2026-05-01 13:13 | -26.95016 | -49.06052 | 34180 ft | 399 kts | 222° |
| 2026-05-01 13:13 | -26.99678 | -49.09477 | 34182 ft | 400 kts | 222° |
| 2026-05-01 13:14 | -27.04324 | -49.12889 | 34184 ft | 399 kts | 222° |
| 2026-05-01 13:14 | -27.08947 | -49.16291 | 34179 ft | 399 kts | 222° |
| 2026-05-01 13:15 | -27.13611 | -49.19711 | 34180 ft | 399 kts | 222° |
| 2026-05-01 13:15 | -27.18239 | -49.23102 | 34183 ft | 399 kts | 222° |
| 2026-05-01 13:16 | -27.22890 | -49.26527 | 34181 ft | 400 kts | 222° |
| 2026-05-01 13:16 | -27.27551 | -49.29968 | 34180 ft | 400 kts | 222° |
| 2026-05-01 13:17 | -27.36851 | -49.36847 | 34192 ft | 400 kts | 223° |
| 2026-05-01 13:18 | -27.43820 | -49.42011 | 34195 ft | 400 kts | 223° |
| 2026-05-01 13:18 | -27.48476 | -49.45469 | 34194 ft | 400 kts | 223° |
| 2026-05-01 13:19 | -27.53106 | -49.48910 | 34200 ft | 399 kts | 223° |
| 2026-05-01 13:20 | -27.60069 | -49.54075 | 34206 ft | 400 kts | 223° |
| 2026-05-01 13:20 | -27.64717 | -49.57522 | 34206 ft | 400 kts | 223° |
| 2026-05-01 13:21 | -27.71682 | -49.62695 | 34215 ft | 400 kts | 223° |
| 2026-05-01 13:21 | -27.76367 | -49.66145 | 34226 ft | 401 kts | 222° |
| 2026-05-01 13:22 | -27.81049 | -49.69493 | 34230 ft | 399 kts | 222° |
| 2026-05-01 13:22 | -27.85757 | -49.72852 | 34233 ft | 400 kts | 222° |
| 2026-05-01 13:23 | -27.90456 | -49.76210 | 34246 ft | 400 kts | 222° |
| 2026-05-01 13:23 | -27.95177 | -49.79584 | 34260 ft | 401 kts | 223° |
| 2026-05-01 13:24 | -27.99879 | -49.82947 | 34268 ft | 401 kts | 223° |
| 2026-05-01 13:25 | -28.06951 | -49.88016 | 34267 ft | 401 kts | 223° |
| 2026-05-01 13:25 | -28.11647 | -49.91383 | 34281 ft | 400 kts | 222° |
| 2026-05-01 13:26 | -28.16373 | -49.94754 | 34277 ft | 400 kts | 222° |
| 2026-05-01 13:26 | -28.21079 | -49.98125 | 34269 ft | 400 kts | 223° |
| 2026-05-01 13:27 | -28.25778 | -50.01504 | 34269 ft | 400 kts | 223° |
| 2026-05-01 13:27 | -28.32848 | -50.06599 | 34261 ft | 401 kts | 223° |
| 2026-05-01 13:28 | -28.39897 | -50.11687 | 34257 ft | 401 kts | 223° |
| 2026-05-01 13:29 | -28.49322 | -50.18505 | 34237 ft | 401 kts | 223° |
| 2026-05-01 13:31 | -28.63463 | -50.28760 | 34219 ft | 403 kts | 223° |
| 2026-05-01 13:32 | -28.75108 | -50.37540 | 34207 ft | 398 kts | 226° |
| 2026-05-01 13:33 | -28.86217 | -50.47017 | 34199 ft | 399 kts | 226° |
| 2026-05-01 13:34 | -28.95107 | -50.54621 | 34188 ft | 399 kts | 226° |
| 2026-05-01 13:35 | -29.01772 | -50.60330 | 34193 ft | 399 kts | 226° |
| 2026-05-01 13:36 | -29.08419 | -50.66068 | 34186 ft | 397 kts | 229° |
| 2026-05-01 13:36 | -29.14408 | -50.72448 | 34167 ft | 388 kts | 236° |
| 2026-05-01 13:37 | -29.17872 | -50.77107 | 34162 ft | 385 kts | 239° |
| 2026-05-01 13:37 | -29.21242 | -50.81836 | 34147 ft | 384 kts | 239° |
| 2026-05-01 13:38 | -29.26288 | -50.88947 | 34131 ft | 385 kts | 239° |
| 2026-05-01 13:39 | -29.29677 | -50.93737 | 34130 ft | 385 kts | 239° |
| 2026-05-01 13:39 | -29.33041 | -50.98495 | 34126 ft | 385 kts | 239° |
| 2026-05-01 13:40 | -29.36415 | -51.03276 | 34127 ft | 385 kts | 239° |
| 2026-05-01 13:40 | -29.39777 | -51.08041 | 34123 ft | 385 kts | 239° |
| 2026-05-01 13:41 | -29.43119 | -51.12789 | 34114 ft | 384 kts | 239° |
| 2026-05-01 13:41 | -29.46474 | -51.17560 | 34096 ft | 384 kts | 239° |
| 2026-05-01 13:42 | -29.49830 | -51.22335 | 34085 ft | 384 kts | 239° |
| 2026-05-01 13:42 | -29.53187 | -51.27115 | 34080 ft | 385 kts | 239° |
| 2026-05-01 13:43 | -29.56535 | -51.31894 | 34065 ft | 384 kts | 239° |
| 2026-05-01 13:43 | -29.59862 | -51.36643 | 34060 ft | 385 kts | 239° |
| 2026-05-01 13:44 | -29.63217 | -51.41444 | 34055 ft | 385 kts | 239° |
| 2026-05-01 13:44 | -29.66545 | -51.46269 | 34050 ft | 383 kts | 241° |
| 2026-05-01 13:45 | -29.69505 | -51.51344 | 34047 ft | 385 kts | 245° |
| 2026-05-01 13:45 | -29.72346 | -51.56632 | 34047 ft | 390 kts | 245° |
| 2026-05-01 13:46 | -29.75192 | -51.61945 | 34042 ft | 390 kts | 245° |
| 2026-05-01 13:46 | -29.78028 | -51.67249 | 34041 ft | 390 kts | 245° |
| 2026-05-01 13:47 | -29.80866 | -51.72587 | 34041 ft | 391 kts | 245° |
| 2026-05-01 13:47 | -29.83706 | -51.77925 | 34030 ft | 392 kts | 245° |
| 2026-05-01 13:48 | -29.86536 | -51.83243 | 34040 ft | 392 kts | 245° |
| 2026-05-01 13:48 | -29.89383 | -51.88595 | 34030 ft | 391 kts | 245° |
| 2026-05-01 13:49 | -29.92215 | -51.93929 | 34033 ft | 391 kts | 245° |
| 2026-05-01 13:49 | -29.95064 | -51.99299 | 34032 ft | 391 kts | 245° |
| 2026-05-01 13:50 | -29.97900 | -52.04652 | 34031 ft | 391 kts | 245° |
| 2026-05-01 13:50 | -30.00720 | -52.09981 | 34032 ft | 390 kts | 245° |
| 2026-05-01 13:51 | -30.03551 | -52.15351 | 34025 ft | 391 kts | 245° |
| 2026-05-01 13:51 | -30.06362 | -52.20693 | 34023 ft | 389 kts | 245° |
| 2026-05-01 13:52 | -30.09164 | -52.26020 | 34028 ft | 391 kts | 245° |
| 2026-05-01 13:52 | -30.11989 | -52.31360 | 34021 ft | 389 kts | 245° |
| 2026-05-01 13:53 | -30.14807 | -52.36697 | 34024 ft | 390 kts | 245° |
| 2026-05-01 13:53 | -30.19112 | -52.44709 | 34019 ft | 390 kts | 243° |
| 2026-05-01 13:54 | -30.22120 | -52.49868 | 34017 ft | 387 kts | 243° |
| 2026-05-01 13:54 | -30.25100 | -52.54986 | 34023 ft | 387 kts | 243° |
| 2026-05-01 13:55 | -30.28107 | -52.60160 | 34015 ft | 388 kts | 243° |
| 2026-05-01 13:55 | -30.31109 | -52.65335 | 34014 ft | 387 kts | 243° |
| 2026-05-01 13:56 | -30.34113 | -52.70536 | 34016 ft | 388 kts | 244° |
| 2026-05-01 13:56 | -30.37097 | -52.75706 | 34014 ft | 388 kts | 243° |
| 2026-05-01 13:57 | -30.40087 | -52.80878 | 34011 ft | 387 kts | 243° |
| 2026-05-01 13:57 | -30.43079 | -52.86058 | 34016 ft | 388 kts | 244° |
| 2026-05-01 13:58 | -30.46059 | -52.91226 | 34017 ft | 387 kts | 244° |
| 2026-05-01 13:58 | -30.49057 | -52.96434 | 34010 ft | 387 kts | 244° |
| 2026-05-01 13:59 | -30.52052 | -53.01640 | 34012 ft | 388 kts | 244° |
| 2026-05-01 13:59 | -30.55046 | -53.06851 | 34006 ft | 388 kts | 244° |
| 2026-05-01 14:00 | -30.58034 | -53.12054 | 34008 ft | 389 kts | 244° |
| 2026-05-01 14:00 | -30.61038 | -53.17291 | 34004 ft | 389 kts | 244° |
| 2026-05-01 14:01 | -30.64024 | -53.22501 | 34007 ft | 390 kts | 244° |
| 2026-05-01 14:01 | -30.67033 | -53.27759 | 34005 ft | 391 kts | 244° |
| 2026-05-01 14:02 | -30.70034 | -53.33012 | 34009 ft | 391 kts | 243° |
| 2026-05-01 14:02 | -30.73037 | -53.38271 | 34011 ft | 391 kts | 244° |
| 2026-05-01 14:03 | -30.76043 | -53.43525 | 34006 ft | 392 kts | 244° |
| 2026-05-01 14:03 | -30.79055 | -53.48790 | 34011 ft | 391 kts | 243° |
| 2026-05-01 14:04 | -30.82063 | -53.54055 | 34006 ft | 392 kts | 244° |
| 2026-05-01 14:04 | -30.84574 | -53.58455 | 34001 ft | 393 kts | 244° |
| 2026-05-01 14:05 | -30.88087 | -53.64623 | 34001 ft | 394 kts | 244° |
| 2026-05-01 14:05 | -30.91097 | -53.69932 | 34003 ft | 392 kts | 244° |
| 2026-05-01 14:06 | -30.94096 | -53.75227 | 34004 ft | 394 kts | 244° |
| 2026-05-01 14:06 | -30.97114 | -53.80546 | 34000 ft | 395 kts | 244° |
| 2026-05-01 14:07 | -31.00127 | -53.85872 | 33999 ft | 394 kts | 244° |
| 2026-05-01 14:08 | -31.04665 | -53.93892 | 33996 ft | 397 kts | 245° |
| 2026-05-01 14:08 | -31.07690 | -53.99250 | 33994 ft | 398 kts | 244° |
| 2026-05-01 14:09 | -31.10732 | -54.04645 | 33993 ft | 397 kts | 244° |
| 2026-05-01 14:09 | -31.13786 | -54.10012 | 33989 ft | 399 kts | 244° |
| 2026-05-01 14:10 | -31.16840 | -54.15414 | 33989 ft | 400 kts | 244° |
| 2026-05-01 14:10 | -31.19884 | -54.20828 | 33985 ft | 400 kts | 244° |
| 2026-05-01 14:11 | -31.22951 | -54.26289 | 33984 ft | 402 kts | 244° |
| 2026-05-01 14:11 | -31.27520 | -54.34449 | 33978 ft | 401 kts | 244° |
| 2026-05-01 14:12 | -31.30564 | -54.39898 | 33978 ft | 403 kts | 244° |
| 2026-05-01 14:12 | -31.33614 | -54.45366 | 33979 ft | 402 kts | 244° |
| 2026-05-01 14:13 | -31.36163 | -54.49940 | 33973 ft | 403 kts | 244° |
| 2026-05-01 14:13 | -31.39725 | -54.56336 | 33968 ft | 403 kts | 244° |
| 2026-05-01 14:14 | -31.42938 | -54.61758 | 33963 ft | 410 kts | 239° |
| 2026-05-01 14:14 | -31.46660 | -54.66854 | 33964 ft | 413 kts | 234° |
| 2026-05-01 14:15 | -31.50804 | -54.71545 | 33958 ft | 420 kts | 231° |
| 2026-05-01 14:15 | -31.55103 | -54.76191 | 33962 ft | 422 kts | 231° |
| 2026-05-01 14:16 | -31.59461 | -54.80889 | 33965 ft | 425 kts | 231° |
| 2026-05-01 14:16 | -31.63772 | -54.85541 | 33962 ft | 423 kts | 231° |
| 2026-05-01 14:17 | -31.68114 | -54.90239 | 33960 ft | 426 kts | 231° |
| 2026-05-01 14:17 | -31.72462 | -54.94946 | 33954 ft | 424 kts | 232° |
| 2026-05-01 14:18 | -31.76817 | -54.99663 | 33948 ft | 423 kts | 232° |
| 2026-05-01 14:18 | -31.80404 | -55.03555 | 33949 ft | 425 kts | 232° |
| 2026-05-01 14:19 | -31.85480 | -55.09076 | 33947 ft | 427 kts | 232° |
| 2026-05-01 14:19 | -31.89825 | -55.13805 | 33946 ft | 427 kts | 232° |
| 2026-05-01 14:20 | -31.96375 | -55.20951 | 33945 ft | 431 kts | 232° |
| 2026-05-01 14:21 | -32.00793 | -55.25775 | 33945 ft | 430 kts | 232° |
| 2026-05-01 14:21 | -32.05161 | -55.30551 | 33945 ft | 432 kts | 232° |
| 2026-05-01 14:22 | -32.11801 | -55.37819 | 33940 ft | 435 kts | 232° |
| 2026-05-01 14:22 | -32.16228 | -55.42637 | 33940 ft | 433 kts | 232° |
| 2026-05-01 14:23 | -32.20615 | -55.47441 | 33939 ft | 433 kts | 232° |
| 2026-05-01 14:23 | -32.25032 | -55.52295 | 33939 ft | 433 kts | 232° |
| 2026-05-01 14:24 | -32.29461 | -55.57176 | 33937 ft | 435 kts | 232° |
| 2026-05-01 14:24 | -32.33880 | -55.62054 | 33938 ft | 434 kts | 232° |
| 2026-05-01 14:25 | -32.38259 | -55.66897 | 33943 ft | 435 kts | 233° |
| 2026-05-01 14:25 | -32.42648 | -55.71778 | 33939 ft | 434 kts | 233° |
| 2026-05-01 14:26 | -32.49267 | -55.79134 | 33946 ft | 436 kts | 232° |
| 2026-05-01 14:27 | -32.53700 | -55.84055 | 33943 ft | 436 kts | 233° |
| 2026-05-01 14:27 | -32.58123 | -55.88975 | 33946 ft | 434 kts | 232° |
| 2026-05-01 14:28 | -32.64708 | -55.96314 | 33946 ft | 435 kts | 232° |
| 2026-05-01 14:28 | -32.69127 | -56.01245 | 33958 ft | 437 kts | 233° |
| 2026-05-01 14:29 | -32.73546 | -56.06181 | 33954 ft | 435 kts | 233° |
| 2026-05-01 14:30 | -32.82361 | -56.16054 | 33946 ft | 433 kts | 233° |
| 2026-05-01 14:31 | -32.88916 | -56.23415 | 33955 ft | 434 kts | 233° |
| 2026-05-01 14:31 | -32.93258 | -56.28297 | 33953 ft | 432 kts | 233° |
| 2026-05-01 14:32 | -32.97619 | -56.33210 | 33950 ft | 429 kts | 233° |
| 2026-05-01 14:32 | -33.01949 | -56.38111 | 33952 ft | 429 kts | 233° |
| 2026-05-01 14:33 | -33.06252 | -56.43001 | 33951 ft | 428 kts | 233° |
| 2026-05-01 14:33 | -33.10549 | -56.47880 | 33949 ft | 427 kts | 233° |
| 2026-05-01 14:34 | -33.14879 | -56.52774 | 33952 ft | 427 kts | 233° |
| 2026-05-01 14:34 | -33.19170 | -56.57648 | 33947 ft | 426 kts | 233° |
| 2026-05-01 14:35 | -33.23441 | -56.62507 | 33951 ft | 425 kts | 233° |
| 2026-05-01 14:35 | -33.27706 | -56.67374 | 33948 ft | 424 kts | 233° |
| 2026-05-01 14:36 | -33.31962 | -56.72265 | 33945 ft | 424 kts | 233° |
| 2026-05-01 14:36 | -33.36193 | -56.77113 | 33950 ft | 423 kts | 233° |
| 2026-05-01 14:37 | -33.40454 | -56.82000 | 33950 ft | 422 kts | 233° |
| 2026-05-01 14:37 | -33.44689 | -56.86866 | 33947 ft | 424 kts | 233° |
| 2026-05-01 14:38 | -33.48871 | -56.91666 | 33580 ft | 415 kts | 233° |
| 2026-05-01 14:38 | -33.50959 | -56.94070 | 32982 ft | 415 kts | 233° |
| 2026-05-01 14:38 | -33.53028 | -56.96457 | 32409 ft | 415 kts | 232° |
| 2026-05-01 14:38 | -33.55112 | -56.98861 | 31745 ft | 417 kts | 232° |
| 2026-05-01 14:39 | -33.57197 | -57.01269 | 31034 ft | 419 kts | 232° |
| 2026-05-01 14:39 | -33.59297 | -57.03694 | 30275 ft | 423 kts | 232° |
| 2026-05-01 14:39 | -33.61420 | -57.06152 | 29474 ft | 427 kts | 232° |
| 2026-05-01 14:39 | -33.63555 | -57.08620 | 28642 ft | 431 kts | 232° |
| 2026-05-01 14:40 | -33.65699 | -57.11099 | 27883 ft | 432 kts | 231° |
| 2026-05-01 14:40 | -33.67877 | -57.13617 | 27139 ft | 433 kts | 231° |
| 2026-05-01 14:40 | -33.70038 | -57.16116 | 26431 ft | 432 kts | 231° |
| 2026-05-01 14:40 | -33.72169 | -57.18581 | 25921 ft | 426 kts | 231° |
| 2026-05-01 14:41 | -33.74283 | -57.21027 | 25413 ft | 420 kts | 231° |
| 2026-05-01 14:41 | -33.76364 | -57.23438 | 24872 ft | 416 kts | 231° |
| 2026-05-01 14:41 | -33.78434 | -57.25840 | 24314 ft | 412 kts | 231° |
| 2026-05-01 14:41 | -33.80476 | -57.28215 | 23768 ft | 409 kts | 231° |
| 2026-05-01 14:42 | -33.82525 | -57.30599 | 23228 ft | 405 kts | 231° |
| 2026-05-01 14:42 | -33.84544 | -57.32951 | 22686 ft | 402 kts | 231° |
| 2026-05-01 14:42 | -33.86540 | -57.35274 | 22151 ft | 399 kts | 231° |
| 2026-05-01 14:42 | -33.88506 | -57.37568 | 21601 ft | 396 kts | 231° |
| 2026-05-01 14:43 | -33.90483 | -57.39872 | 21073 ft | 393 kts | 231° |
| 2026-05-01 14:43 | -33.92425 | -57.42140 | 20540 ft | 390 kts | 230° |
| 2026-05-01 14:43 | -33.94369 | -57.44412 | 19991 ft | 388 kts | 230° |
| 2026-05-01 14:43 | -33.96283 | -57.46648 | 19452 ft | 385 kts | 230° |
| 2026-05-01 14:44 | -33.98210 | -57.48902 | 18927 ft | 382 kts | 230° |
| 2026-05-01 14:44 | -34.01968 | -57.53301 | 17866 ft | 377 kts | 230° |
| 2026-05-01 14:44 | -34.03836 | -57.55487 | 17340 ft | 374 kts | 230° |
| 2026-05-01 14:45 | -34.05687 | -57.57655 | 16832 ft | 372 kts | 230° |
| 2026-05-01 14:45 | -34.09378 | -57.61985 | 15770 ft | 368 kts | 230° |
| 2026-05-01 14:45 | -34.11201 | -57.64120 | 15254 ft | 365 kts | 230° |
| 2026-05-01 14:46 | -34.13016 | -57.66239 | 14723 ft | 363 kts | 230° |
| 2026-05-01 14:46 | -34.16605 | -57.70459 | 13709 ft | 357 kts | 230° |
| 2026-05-01 14:46 | -34.18366 | -57.72534 | 13207 ft | 355 kts | 230° |
| 2026-05-01 14:47 | -34.20113 | -57.74594 | 12670 ft | 353 kts | 230° |
| 2026-05-01 14:47 | -34.21875 | -57.76675 | 12179 ft | 350 kts | 230° |
| 2026-05-01 14:47 | -34.23590 | -57.78698 | 11780 ft | 345 kts | 230° |
| 2026-05-01 14:48 | -34.26917 | -57.82615 | 11338 ft | 319 kts | 230° |
| 2026-05-01 14:48 | -34.28446 | -57.84414 | 11021 ft | 300 kts | 230° |
| 2026-05-01 14:48 | -34.31328 | -57.87827 | 9905 ft | 286 kts | 230° |
| 2026-05-01 14:49 | -34.34130 | -57.91164 | 8496 ft | 282 kts | 230° |
| 2026-05-01 14:49 | -34.36898 | -57.94447 | 7137 ft | 279 kts | 229° |
| 2026-05-01 14:50 | -34.38738 | -57.96635 | 6184 ft | 278 kts | 227° |
| 2026-05-01 14:50 | -34.42444 | -58.00852 | 4411 ft | 274 kts | 223° |
| 2026-05-01 14:51 | -34.43932 | -58.02313 | 3925 ft | 274 kts | 222° |
| 2026-05-01 14:51 | -34.46860 | -58.05161 | 3206 ft | 269 kts | 223° |
| 2026-05-01 14:52 | -34.49766 | -58.08001 | 2972 ft | 267 kts | 223° |
| 2026-05-01 14:52 | -34.51212 | -58.09417 | 2971 ft | 268 kts | 223° |
| 2026-05-01 14:52 | -34.54082 | -58.12225 | 2961 ft | 258 kts | 223° |
| 2026-05-01 14:53 | -34.55439 | -58.13549 | 2953 ft | 242 kts | 223° |
| 2026-05-01 14:53 | -34.56723 | -58.14806 | 2957 ft | 235 kts | 223° |
| 2026-05-01 14:53 | -34.58007 | -58.16067 | 2957 ft | 237 kts | 223° |
| 2026-05-01 14:53 | -34.59273 | -58.17315 | 2961 ft | 237 kts | 223° |
| 2026-05-01 14:54 | -34.60557 | -58.18578 | 2963 ft | 236 kts | 223° |
| 2026-05-01 14:54 | -34.61818 | -58.19815 | 2803 ft | 233 kts | 223° |
| 2026-05-01 14:54 | -34.63087 | -58.21062 | 2518 ft | 232 kts | 223° |
| 2026-05-01 14:54 | -34.64331 | -58.22291 | 2466 ft | 225 kts | 225° |
| 2026-05-01 14:55 | -34.65197 | -58.23718 | 2411 ft | 201 kts | 263° |
| 2026-05-01 14:55 | -34.65058 | -58.25238 | 2433 ft | 175 kts | 299° |
| 2026-05-01 14:55 | -34.64420 | -58.26511 | 2461 ft | 177 kts | 308° |
| 2026-05-01 14:55 | -34.63683 | -58.27721 | 2455 ft | 177 kts | 308° |
| 2026-05-01 14:56 | -34.62971 | -58.28922 | 2318 ft | 173 kts | 307° |
| 2026-05-01 14:56 | -34.62307 | -58.30095 | 2046 ft | 163 kts | 306° |
| 2026-05-01 14:56 | -34.61704 | -58.31189 | 1831 ft | 148 kts | 307° |
| 2026-05-01 14:56 | -34.61157 | -58.32180 | 1625 ft | 136 kts | 308° |
| 2026-05-01 14:57 | -34.60628 | -58.33127 | 1474 ft | 135 kts | 307° |
| 2026-05-01 14:57 | -34.59584 | -58.35002 | 1117 ft | 134 kts | 306° |
| 2026-05-01 14:57 | -34.59063 | -58.35941 | 933 ft | 134 kts | 306° |
| 2026-05-01 14:58 | -34.58545 | -58.36882 | 746 ft | 133 kts | 306° |
| 2026-05-01 14:58 | -34.58029 | -58.37814 | 581 ft | 133 kts | 307° |
| 2026-05-01 14:58 | -34.57494 | -58.38736 | 384 ft | 133 kts | 306° |
| 2026-05-01 14:58 | -34.56987 | -58.39677 | 232 ft | 134 kts | 306° |
| 2026-05-01 14:59 | -34.56467 | -58.40601 | 70 ft | 132 kts | 305° |
| 2026-05-01 14:59 | -34.55993 | -58.41448 | 32 ft | 102 kts | 303° |
| 2026-05-01 14:59 | -34.55691 | -58.41991 | 25 ft | 52 kts | 304° |
| 2026-05-01 14:59 | -34.55578 | -58.42192 | 27 ft | 14 kts | 303° |
| 2026-05-01 15:00 | -34.55467 | -58.42388 | 28 ft | 14 kts | 303° |
| 2026-05-01 15:00 | -34.55415 | -58.42484 | 28 ft | 9 kts | 305° |
| 2026-05-01 15:00 | -34.55361 | -58.42477 | 28 ft | 9 kts | 60° |
| 2026-05-01 15:01 | -34.55364 | -58.42384 | 27 ft | 12 kts | 105° |
| 2026-05-01 15:01 | -34.55415 | -58.42293 | 27 ft | 13 kts | 127° |
| 2026-05-01 15:01 | -34.55473 | -58.42201 | 26 ft | 14 kts | 127° |
| 2026-05-01 15:01 | -34.55538 | -58.42097 | 25 ft | 15 kts | 127° |
| 2026-05-01 15:02 | -34.55602 | -58.41990 | 25 ft | 13 kts | 123° |
| 2026-05-01 15:02 | -34.55631 | -58.41939 | 25 ft | 11 kts | 124° |
| 2026-05-01 15:02 | -34.55636 | -58.41860 | 25 ft | 8 kts | 39° |
| 2026-05-01 15:02 | -34.55615 | -58.41797 | 25 ft | 9 kts | 109° |
| 2026-05-01 15:03 | -34.55654 | -58.41723 | 25 ft | 10 kts | 124° |
| 2026-05-01 15:03 | -34.55689 | -58.41658 | 26 ft | 2 kts | 122° |
| 2026-05-01 15:03 | -34.55693 | -58.41649 | 26 ft | 0 kts | 112° |
| 2026-05-01 15:03 | -34.55693 | -58.41630 | 26 ft | 3 kts | 76° |
| 2026-05-01 15:04 | -34.55684 | -58.41602 | 26 ft | 3 kts | 64° |
| 2026-05-01 15:04 | -34.55673 | -58.41575 | 27 ft | 4 kts | 65° |
| 2026-05-01 15:04 | -34.55664 | -58.41552 | 27 ft | 0 kts | 64° |